Lanty, Arkansas
Current Conditions -  °F | °C
As of 3:53 AM on Thursday 27 Nov 2014 (Local Time) from KRUE Reporting Station
Clear Clear  
Wind Chill: -1°   Ceiling: Unl
Heat Index:   Visibility: 10mi
Dew Point: -4°   Wind: 7mph
Humidity: 64%   Direction: 310°NW
Pressure: 30.41"   Gusts: NA
Location:  35.227°N, 92.6879°W
Report Text: KRUE 270953Z AUTO 31006KT 10SM CLR 02/M04 A3041 RMK AO2 SLP295 T00221039
Loading
Personal Weather Stations






























Interactive Weather Map New forecast layout! Learn more

10-Day Weather Forecast

Advertisements
Track Severe Weather on mobile